Airfield :
LOGIN :

Register | Disclaimer

   EN    FR    IT 

 










Legend :    VFR   Marginal VFR   IFR   Intensive IFR   Very Intensive IFR
Visi :
Ceiling :
>= 8 km
>= 3000ft
5 to 8 km
1000 to 3000 ft
1500m to 5 km
500 to 1000 ft
800 to 1500m
200 to 500 ft
< 800m
< 200 ft
Symbols :   Thunderstorms  Fog  Heavy snow  Heavy precipitations  Wind > 20 kt
SIGMETs :     Misc.  Thunderstorms  Icing  Turbulence  Mountain Waves  Volcanic Ashes







- Airport Elevation : 614 ft
- IATA code : CRL


EBCI - Charleroi

CURRENT METAR :
  • 190420Z 06010KT 7000 FEW009 M01/M02 Q1020 TEMPO 4000 BR BKN007

EXPIRED METARs :
  • 190350Z 05012KT 9000 NSC M01/M02 Q1020 NOSIG
  • 190320Z 04012KT 9000 NSC M01/M03 Q1020 NOSIG
  • 190250Z 04011KT 9000 NSC M01/M03 Q1020 NOSIG
  • 190220Z 05010KT CAVOK M01/M04 Q1021 NOSIG
  • 190150Z 04010KT CAVOK M01/M04 Q1021 NOSIG

TAF TAF EBCI
Valid from the 19 at 00:00 until the 20 at 06:00 UTC


182300Z 1900/2006 05010KT CAVOK
BECMG 1903/1905 SCT006 BKN011
PROB40
TEMPO 1904/1909 3500 -DZ BR BKN005
PROB30
TEMPO 1904/1906 2500 -FZDZ BKN003
BECMG 1909/1911 SCT013 BKN020
PROB30
TEMPO 1910/1918 06015G25KT SHRA
PROB30
TEMPO 1918/2006 4000 -SHSNRA -SHSN
No reported NOTAMs for that airfield.



MET'MAP, your aeronautical weather chart ! - Copyright ORBIFLY December 2007 - Disclaimer

ORBIFLY MET'MAP TEAM :

Programming & Development : Alexandra Zaïnal
Concept & Development : Baudouin d'Aumeries
Co-Development & Prog : Marc-Olivier Méhu
Technical & hardware support : Manuel Goepfert

Contact : metmap@orbifly.com




SOURCES & CREDITS :

   NOAA